createdAt,value
2022-10-31T00:00:02.238Z,6.15
2022-10-31T00:02:29.125Z,6.47
2022-10-31T00:04:56.458Z,5.95
2022-10-31T00:07:23.314Z,6.80
2022-10-31T00:09:50.224Z,7.28
2022-10-31T00:12:17.061Z,5.97
2022-10-31T00:14:43.941Z,7.30
2022-10-31T00:17:10.837Z,6.55
2022-10-31T00:19:37.731Z,7.32
2022-10-31T00:22:04.553Z,6.47
2022-10-31T00:24:31.500Z,6.45
2022-10-31T00:26:58.411Z,6.95
2022-10-31T00:29:25.312Z,7.72
2022-10-31T00:31:53.656Z,6.88
2022-10-31T00:34:20.560Z,7.97
2022-10-31T00:36:47.422Z,6.78
2022-10-31T00:39:14.325Z,6.32
2022-10-31T00:41:41.232Z,6.53
2022-10-31T00:44:08.135Z,7.20
2022-10-31T00:46:35.003Z,6.30
2022-10-31T00:49:01.885Z,6.07
2022-10-31T00:51:28.699Z,6.22
2022-10-31T00:53:55.596Z,7.03
2022-10-31T00:56:22.505Z,6.70
2022-10-31T00:58:49.411Z,6.90
2022-10-31T01:01:16.359Z,7.47
2022-10-31T01:03:43.326Z,6.90
2022-10-31T01:06:12.583Z,6.93
2022-10-31T01:08:39.816Z,7.30
2022-10-31T01:11:11.636Z,7.25
2022-10-31T01:13:38.751Z,7.47
2022-10-31T01:16:07.972Z,7.32
2022-10-31T01:18:35.362Z,7.00
2022-10-31T01:21:10.442Z,7.20
2022-10-31T01:23:37.873Z,7.00
2022-10-31T01:26:13.904Z,6.63
2022-10-31T01:28:54.736Z,6.95
2022-10-31T01:31:23.511Z,7.35
2022-10-31T01:33:50.406Z,7.05
2022-10-31T01:36:23.014Z,7.68
2022-10-31T01:38:50.470Z,7.80
2022-10-31T01:41:19.777Z,6.97
2022-10-31T01:44:01.682Z,6.80
2022-10-31T01:46:29.289Z,7.03
2022-10-31T01:48:56.945Z,6.82
2022-10-31T01:51:29.061Z,7.45
2022-10-31T01:53:58.956Z,7.23
2022-10-31T01:56:25.977Z,7.03
2022-10-31T01:58:53.239Z,7.18
2022-10-31T02:01:20.601Z,6.50
2022-10-31T02:03:48.095Z,7.18
2022-10-31T02:06:44.136Z,7.57
2022-10-31T02:09:12.689Z,6.72
2022-10-31T02:11:39.851Z,7.07
2022-10-31T02:14:06.778Z,8.60
2022-10-31T02:16:33.771Z,7.35
2022-10-31T02:19:00.673Z,7.55
2022-10-31T02:21:43.428Z,7.30
2022-10-31T02:24:25.615Z,7.15
2022-10-31T02:26:55.749Z,7.28
2022-10-31T02:29:39.724Z,7.63
2022-10-31T02:32:22.560Z,6.97
2022-10-31T02:35:13.414Z,7.65
2022-10-31T02:37:50.201Z,7.18
2022-10-31T02:40:28.274Z,7.68
2022-10-31T02:43:08.193Z,6.85
2022-10-31T02:45:43.101Z,7.32
2022-10-31T02:48:22.214Z,7.40
2022-10-31T02:51:02.193Z,7.18
2022-10-31T02:53:36.248Z,7.68
2022-10-31T02:56:14.325Z,7.35
2022-10-31T02:58:50.762Z,7.47
2022-10-31T03:01:42.965Z,7.82
2022-10-31T03:04:35.916Z,6.78
2022-10-31T03:07:38.741Z,7.50
2022-10-31T03:10:14.207Z,7.97
2022-10-31T03:12:44.538Z,6.85
2022-10-31T03:15:23.037Z,7.55
2022-10-31T03:17:56.174Z,8.02
2022-10-31T03:20:27.621Z,7.82
2022-10-31T03:22:56.183Z,8.15
2022-10-31T03:25:23.716Z,6.90
2022-10-31T03:27:50.809Z,7.75
2022-10-31T03:30:18.176Z,7.93
2022-10-31T03:32:55.768Z,7.75
2022-10-31T03:35:24.879Z,7.43
2022-10-31T03:37:53.651Z,6.97
2022-10-31T03:40:22.509Z,8.27
2022-10-31T03:42:55.905Z,9.15
2022-10-31T03:45:26.030Z,7.65
2022-10-31T03:47:54.454Z,7.85
2022-10-31T03:50:22.468Z,8.40
2022-10-31T03:53:09.115Z,7.10
2022-10-31T03:55:41.861Z,8.15
2022-10-31T03:58:12.178Z,7.43
2022-10-31T04:00:43.098Z,7.38
2022-10-31T04:03:20.518Z,7.15
2022-10-31T04:05:48.157Z,8.80
2022-10-31T04:08:18.874Z,7.90
2022-10-31T04:10:48.951Z,7.63
2022-10-31T04:15:53.731Z,7.70
2022-10-31T04:18:20.728Z,7.90
2022-10-31T04:20:51.310Z,7.55
2022-10-31T04:23:24.369Z,8.48
2022-10-31T04:25:51.356Z,8.00
2022-10-31T04:30:46.226Z,7.78
2022-10-31T04:33:13.136Z,8.15
2022-10-31T04:35:40.023Z,8.85
2022-10-31T04:38:06.910Z,8.27
2022-10-31T04:40:33.829Z,8.63
2022-10-31T04:43:01.007Z,8.30
2022-10-31T04:45:28.102Z,8.30
2022-10-31T04:47:55.009Z,8.25
2022-10-31T04:50:21.892Z,8.80
2022-10-31T04:52:49.012Z,8.00
2022-10-31T04:55:16.065Z,8.27
2022-10-31T04:57:44.001Z,9.13
2022-10-31T05:00:12.335Z,7.82
2022-10-31T05:02:52.645Z,9.18
2022-10-31T05:05:21.745Z,8.68
2022-10-31T05:07:50.497Z,9.02
2022-10-31T05:10:19.923Z,8.57
2022-10-31T05:12:49.502Z,8.73
2022-10-31T05:15:17.200Z,9.25
2022-10-31T05:17:44.464Z,9.25
2022-10-31T05:20:13.240Z,8.60
2022-10-31T05:22:46.712Z,9.07
2022-10-31T05:25:13.810Z,8.95
2022-10-31T05:27:41.830Z,8.02
2022-10-31T05:30:09.611Z,7.80
2022-10-31T05:32:44.472Z,8.52
2022-10-31T05:35:14.033Z,9.75
2022-10-31T05:37:41.163Z,8.95
2022-10-31T05:40:11.542Z,8.85
2022-10-31T05:42:42.535Z,9.43
2022-10-31T05:45:14.857Z,9.35
2022-10-31T05:47:41.792Z,8.23
2022-10-31T05:50:09.927Z,8.55
2022-10-31T05:52:37.182Z,8.45
2022-10-31T05:55:04.376Z,9.30
2022-10-31T05:57:34.992Z,8.23
2022-10-31T06:00:02.111Z,7.88
2022-10-31T06:02:32.695Z,8.68
2022-10-31T06:04:59.647Z,9.10
2022-10-31T06:07:26.560Z,8.90
2022-10-31T06:09:53.483Z,8.88
2022-10-31T06:12:20.303Z,9.07
2022-10-31T06:14:47.169Z,9.05
2022-10-31T06:17:14.040Z,9.18
2022-10-31T06:19:40.926Z,8.85
2022-10-31T06:22:07.868Z,9.45
2022-10-31T06:24:34.906Z,9.07
2022-10-31T06:27:01.710Z,9.73
2022-10-31T06:29:28.664Z,9.98
2022-10-31T06:31:55.743Z,9.10
2022-10-31T06:34:22.724Z,8.70
2022-10-31T06:36:49.950Z,8.95
2022-10-31T06:39:16.846Z,8.95
2022-10-31T06:41:43.714Z,10.02
2022-10-31T06:44:10.594Z,10.07
2022-10-31T06:46:37.910Z,9.65
2022-10-31T06:49:04.830Z,9.52
2022-10-31T06:51:31.852Z,9.10
2022-10-31T06:53:59.925Z,9.25
2022-10-31T06:56:26.844Z,8.75
2022-10-31T06:58:53.873Z,9.18
2022-10-31T07:01:20.968Z,8.65
2022-10-31T07:03:48.067Z,8.40
2022-10-31T07:06:15.051Z,9.48
2022-10-31T07:08:42.057Z,9.63
2022-10-31T07:11:08.878Z,9.65
2022-10-31T07:13:35.702Z,9.38
2022-10-31T07:16:05.491Z,9.65
2022-10-31T07:18:32.346Z,10.75
2022-10-31T07:20:59.285Z,9.57
2022-10-31T07:23:26.175Z,9.80
2022-10-31T07:25:57.292Z,9.52
2022-10-31T07:28:24.817Z,9.85
2022-10-31T07:31:00.549Z,9.40
2022-10-31T07:33:27.518Z,9.93
2022-10-31T07:35:54.969Z,9.70
2022-10-31T07:38:22.250Z,9.48
2022-10-31T07:40:53.907Z,10.18
2022-10-31T07:43:21.333Z,10.85
2022-10-31T07:45:55.179Z,10.68
2022-10-31T07:48:23.354Z,10.05
2022-10-31T07:50:50.303Z,11.05
2022-10-31T07:53:17.462Z,10.27
2022-10-31T07:55:44.972Z,10.43
2022-10-31T07:58:14.524Z,11.10
2022-10-31T08:00:43.784Z,10.77
2022-10-31T08:03:15.773Z,11.75
2022-10-31T08:05:43.658Z,11.18
2022-10-31T08:08:10.693Z,11.48
2022-10-31T08:10:37.967Z,10.25
2022-10-31T08:13:07.869Z,11.50
2022-10-31T08:15:38.068Z,9.93
2022-10-31T08:18:05.937Z,11.38
2022-10-31T08:20:33.096Z,10.93
2022-10-31T08:23:01.930Z,12.15
2022-10-31T08:25:33.745Z,11.63
2022-10-31T08:28:04.683Z,12.00
2022-10-31T08:30:34.449Z,11.55
2022-10-31T08:33:16.305Z,12.48
2022-10-31T08:35:43.261Z,12.95
2022-10-31T08:38:12.167Z,13.10
2022-10-31T08:40:39.720Z,13.00
2022-10-31T08:43:15.259Z,13.20
2022-10-31T08:45:42.914Z,12.70
2022-10-31T08:48:16.840Z,12.60
2022-10-31T08:50:45.076Z,12.85
2022-10-31T08:53:17.205Z,12.48
2022-10-31T08:55:45.054Z,12.43
2022-10-31T08:58:14.424Z,13.30
2022-10-31T09:00:41.512Z,13.15
2022-10-31T09:03:11.851Z,14.52
2022-10-31T09:05:39.316Z,13.07
2022-10-31T09:08:11.705Z,13.25
2022-10-31T09:10:42.107Z,14.60
2022-10-31T09:13:14.040Z,14.50
2022-10-31T09:15:43.346Z,14.30
2022-10-31T09:18:10.626Z,14.52
2022-10-31T09:20:39.161Z,13.35
2022-10-31T09:23:12.684Z,13.40
2022-10-31T09:25:40.313Z,14.68
2022-10-31T09:28:08.441Z,15.32
2022-10-31T09:30:36.673Z,14.32
2022-10-31T09:33:12.053Z,15.20
2022-10-31T09:35:39.213Z,15.43
2022-10-31T09:38:17.404Z,15.73
2022-10-31T09:40:45.250Z,16.63
2022-10-31T09:43:50.426Z,15.23
2022-10-31T09:46:38.239Z,15.23
2022-10-31T09:49:08.228Z,16.40
2022-10-31T09:51:54.766Z,14.93
2022-10-31T09:54:35.856Z,16.95
2022-10-31T09:57:03.580Z,16.42
2022-10-31T09:59:37.501Z,15.57
2022-10-31T10:02:11.968Z,15.80
2022-10-31T10:05:01.775Z,17.50
2022-10-31T10:07:44.782Z,15.98
2022-10-31T10:10:40.465Z,18.38
2022-10-31T10:13:30.427Z,16.55
2022-10-31T10:16:15.649Z,16.17
2022-10-31T10:19:12.438Z,17.20
2022-10-31T10:22:00.514Z,18.13
2022-10-31T10:24:42.526Z,16.05
2022-10-31T10:27:23.356Z,16.33
2022-10-31T10:30:02.311Z,15.68
2022-10-31T10:32:32.941Z,18.17
2022-10-31T10:35:27.403Z,16.05
2022-10-31T10:37:58.948Z,16.30
2022-10-31T10:40:28.284Z,17.23
2022-10-31T10:43:22.158Z,16.35
2022-10-31T10:46:13.087Z,16.33
2022-10-31T10:48:44.956Z,16.70
2022-10-31T10:51:46.303Z,14.43
2022-10-31T10:54:28.064Z,16.17
2022-10-31T10:57:21.917Z,16.33
2022-10-31T10:59:49.019Z,17.75
2022-10-31T11:02:27.161Z,15.40
2022-10-31T11:04:59.123Z,16.35
2022-10-31T11:07:25.969Z,15.77
2022-10-31T11:10:04.977Z,16.00
2022-10-31T11:12:33.895Z,15.10
2022-10-31T11:15:08.719Z,14.43
2022-10-31T11:17:40.472Z,16.60
2022-10-31T11:20:16.376Z,17.02
2022-10-31T11:22:47.374Z,15.95
2022-10-31T11:25:27.550Z,15.95
2022-10-31T11:28:01.409Z,17.23
2022-10-31T11:30:28.932Z,16.45
2022-10-31T11:32:55.941Z,15.43
2022-10-31T11:35:30.690Z,15.70
2022-10-31T11:38:00.062Z,16.27
2022-10-31T11:40:27.929Z,15.77
2022-10-31T11:42:59.845Z,15.30
2022-10-31T11:45:34.965Z,16.25
2022-10-31T11:48:03.525Z,14.95
2022-10-31T11:50:42.517Z,16.55
2022-10-31T11:53:18.466Z,14.27
2022-10-31T11:55:46.448Z,16.20
2022-10-31T11:58:27.003Z,15.80
2022-10-31T12:00:56.531Z,13.88
2022-10-31T12:03:23.377Z,15.45
2022-10-31T12:06:09.781Z,14.55
2022-10-31T12:08:37.986Z,13.95
2022-10-31T12:11:29.531Z,13.90
2022-10-31T12:14:31.672Z,13.73
2022-10-31T12:17:25.748Z,13.38
2022-10-31T12:20:01.698Z,14.65
2022-10-31T12:22:46.631Z,15.48
2022-10-31T12:25:40.253Z,13.65
2022-10-31T12:28:41.575Z,12.93
2022-10-31T12:31:19.209Z,14.35
2022-10-31T12:34:07.362Z,13.98
2022-10-31T12:36:52.853Z,13.32
2022-10-31T12:40:07.115Z,15.60
2022-10-31T12:42:49.219Z,15.27
2022-10-31T12:45:57.882Z,14.45
2022-10-31T12:49:02.499Z,14.93
2022-10-31T12:51:47.292Z,14.30
2022-10-31T12:54:42.820Z,13.32
2022-10-31T12:57:37.900Z,13.75
2022-10-31T13:00:06.626Z,13.20
2022-10-31T13:02:52.598Z,14.43
2022-10-31T13:05:43.320Z,12.50
2022-10-31T13:08:31.932Z,12.18
2022-10-31T13:11:12.823Z,12.90
2022-10-31T13:13:45.513Z,13.18
2022-10-31T13:16:24.770Z,13.60
2022-10-31T13:19:29.868Z,13.48
2022-10-31T13:22:07.915Z,11.95
2022-10-31T13:25:01.160Z,12.18
2022-10-31T13:27:56.038Z,12.88
2022-10-31T13:30:24.969Z,10.75
2022-10-31T13:33:25.826Z,10.57
2022-10-31T13:35:58.535Z,8.25
2022-10-31T13:38:42.714Z,8.25
2022-10-31T13:41:14.697Z,8.23
2022-10-31T13:44:11.017Z,8.73
2022-10-31T13:46:40.260Z,8.75
2022-10-31T13:49:31.736Z,8.13
2022-10-31T13:52:10.855Z,8.40
2022-10-31T13:54:42.490Z,9.02
2022-10-31T13:57:24.528Z,7.30
2022-10-31T13:59:58.358Z,9.00
2022-10-31T14:02:33.434Z,7.28
2022-10-31T14:05:07.798Z,7.63
2022-10-31T14:07:44.460Z,7.72
2022-10-31T14:10:25.519Z,8.20
2022-10-31T14:12:52.564Z,8.02
2022-10-31T14:15:27.691Z,8.27
2022-10-31T14:18:06.931Z,8.18
2022-10-31T14:20:36.257Z,8.77
2022-10-31T14:23:35.183Z,8.23
2022-10-31T14:26:17.264Z,7.95
2022-10-31T14:28:47.154Z,7.55
2022-10-31T14:31:37.279Z,8.10
2022-10-31T14:34:15.834Z,7.60
2022-10-31T14:36:44.679Z,7.95
2022-10-31T14:39:43.964Z,8.20
2022-10-31T14:42:48.224Z,11.70
2022-10-31T14:45:44.783Z,13.13
2022-10-31T14:48:42.176Z,8.38
2022-10-31T14:51:37.527Z,8.35
2022-10-31T14:54:07.293Z,7.47
2022-10-31T14:56:36.158Z,7.30
2022-10-31T14:59:15.467Z,7.93
2022-10-31T15:01:54.935Z,8.57
2022-10-31T15:04:27.470Z,8.10
2022-10-31T15:07:03.771Z,8.48
2022-10-31T15:09:33.794Z,6.90
2022-10-31T15:12:02.048Z,7.75
2022-10-31T15:14:31.408Z,7.00
2022-10-31T15:16:59.253Z,6.53
2022-10-31T15:19:28.733Z,6.47
2022-10-31T15:21:57.740Z,6.70
2022-10-31T15:24:31.368Z,7.32
2022-10-31T15:27:03.814Z,5.88
2022-10-31T15:29:32.092Z,7.70
2022-10-31T15:32:19.531Z,6.90
2022-10-31T15:34:46.569Z,7.05
2022-10-31T15:37:19.284Z,6.40
2022-10-31T15:39:56.367Z,6.78
2022-10-31T15:42:39.361Z,6.28
2022-10-31T15:45:10.346Z,6.40
2022-10-31T15:47:37.673Z,6.53
2022-10-31T15:50:13.776Z,6.15
2022-10-31T15:52:47.991Z,5.40
2022-10-31T15:55:25.156Z,6.13
2022-10-31T15:57:58.675Z,5.57
2022-10-31T16:00:27.092Z,7.03
2022-10-31T16:03:07.260Z,7.57
2022-10-31T16:05:46.162Z,5.57
2022-10-31T16:08:31.355Z,7.50
2022-10-31T16:11:08.590Z,6.32
2022-10-31T16:13:38.258Z,6.93
2022-10-31T16:19:02.399Z,5.63
2022-10-31T16:21:35.152Z,5.45
2022-10-31T16:24:06.358Z,5.28
2022-10-31T16:26:34.254Z,5.72
2022-10-31T16:29:05.537Z,4.57
2022-10-31T16:31:40.813Z,4.70
2022-10-31T16:34:26.330Z,4.82
2022-10-31T16:36:53.944Z,4.82
2022-10-31T16:39:21.095Z,4.32
2022-10-31T16:41:50.530Z,4.95
2022-10-31T16:44:23.794Z,4.88
2022-10-31T16:47:09.417Z,4.43
2022-10-31T16:49:36.373Z,4.07
2022-10-31T16:52:03.298Z,4.47
2022-10-31T16:54:30.834Z,5.20
2022-10-31T16:57:00.940Z,5.53
2022-10-31T16:59:30.311Z,4.30
2022-10-31T17:01:57.489Z,4.65
2022-10-31T17:04:25.026Z,4.15
2022-10-31T17:06:52.152Z,4.75
2022-10-31T17:09:19.092Z,5.13
2022-10-31T17:11:49.625Z,4.45
2022-10-31T17:14:17.782Z,4.47
2022-10-31T17:16:44.735Z,4.68
2022-10-31T17:19:12.577Z,5.13
2022-10-31T17:21:40.187Z,4.50
2022-10-31T17:24:08.788Z,5.43
2022-10-31T17:26:35.691Z,5.45
2022-10-31T17:29:03.681Z,5.15
2022-10-31T17:31:32.630Z,3.70
2022-10-31T17:34:02.686Z,5.90
2022-10-31T17:36:31.577Z,5.38
2022-10-31T17:38:58.623Z,5.60
2022-10-31T17:41:25.501Z,4.65
2022-10-31T17:43:56.541Z,5.00
2022-10-31T17:46:23.521Z,5.10
2022-10-31T17:48:50.400Z,5.28
2022-10-31T17:51:17.650Z,5.25
2022-10-31T17:53:44.660Z,5.03
2022-10-31T17:56:11.577Z,6.13
2022-10-31T17:58:38.643Z,5.10
2022-10-31T18:01:14.938Z,4.75
2022-10-31T18:03:42.447Z,5.75
2022-10-31T18:06:12.896Z,4.88
2022-10-31T18:08:42.328Z,6.13
2022-10-31T18:11:17.991Z,4.35
2022-10-31T18:13:45.405Z,5.47
2022-10-31T18:16:15.030Z,5.25
2022-10-31T18:18:42.121Z,5.05
2022-10-31T18:21:09.012Z,4.97
2022-10-31T18:23:36.011Z,5.45
2022-10-31T18:26:03.235Z,4.63
2022-10-31T18:28:30.428Z,5.28
2022-10-31T18:31:00.546Z,4.85
2022-10-31T18:33:27.835Z,4.85
2022-10-31T18:35:54.742Z,4.25
2022-10-31T18:38:21.747Z,4.43
2022-10-31T18:40:48.621Z,3.72
2022-10-31T18:43:15.481Z,4.43
2022-10-31T18:45:52.338Z,4.57
2022-10-31T18:48:22.299Z,4.03
2022-10-31T18:50:49.146Z,3.67
2022-10-31T18:53:16.094Z,5.22
2022-10-31T18:55:47.210Z,4.13
2022-10-31T18:58:17.098Z,6.20
2022-10-31T19:00:44.922Z,5.43
2022-10-31T19:03:12.186Z,4.53
2022-10-31T19:05:39.108Z,4.95
2022-10-31T19:08:06.159Z,4.45
2022-10-31T19:10:37.473Z,4.65
2022-10-31T19:13:04.786Z,4.38
2022-10-31T19:15:33.855Z,4.30
2022-10-31T19:18:01.135Z,4.40
2022-10-31T19:20:28.118Z,3.60
2022-10-31T19:22:55.015Z,3.80
2022-10-31T19:25:21.956Z,4.03
2022-10-31T19:27:49.420Z,4.13
2022-10-31T19:30:16.503Z,4.20
2022-10-31T19:32:43.352Z,4.18
2022-10-31T19:35:11.870Z,4.10
2022-10-31T19:37:39.837Z,3.65
2022-10-31T19:40:08.714Z,5.30
2022-10-31T19:42:35.997Z,4.72
2022-10-31T19:45:03.786Z,4.40
2022-10-31T19:47:30.646Z,4.40
2022-10-31T19:49:57.624Z,4.50
2022-10-31T19:52:24.508Z,4.30
2022-10-31T19:54:51.755Z,4.32
2022-10-31T19:57:26.680Z,4.32
2022-10-31T20:00:06.212Z,5.07
2022-10-31T20:02:33.076Z,5.13
2022-10-31T20:05:00.148Z,4.72
2022-10-31T20:07:27.037Z,4.68
2022-10-31T20:09:53.950Z,6.53
2022-10-31T20:12:20.885Z,5.63
2022-10-31T20:14:49.551Z,5.10
2022-10-31T20:17:16.391Z,4.22
2022-10-31T20:19:43.321Z,4.30
2022-10-31T20:22:11.387Z,4.25
2022-10-31T20:24:38.250Z,4.40
2022-10-31T20:27:05.819Z,4.80
2022-10-31T20:29:32.763Z,5.40
2022-10-31T20:31:59.701Z,4.45
2022-10-31T20:34:26.639Z,4.90
2022-10-31T20:36:53.553Z,5.10
2022-10-31T20:39:20.783Z,4.60
2022-10-31T20:41:48.637Z,5.03
2022-10-31T20:44:15.835Z,4.35
2022-10-31T20:46:48.965Z,4.40
2022-10-31T20:49:16.047Z,4.53
2022-10-31T20:51:43.207Z,5.53
2022-10-31T20:54:12.272Z,5.38
2022-10-31T20:56:39.108Z,4.88
2022-10-31T20:59:07.389Z,4.03
2022-10-31T21:01:36.431Z,4.40
2022-10-31T21:04:05.094Z,4.35
2022-10-31T21:06:32.141Z,4.07
2022-10-31T21:08:59.130Z,4.90
2022-10-31T21:11:27.949Z,5.22
2022-10-31T21:13:55.266Z,4.25
2022-10-31T21:16:26.054Z,5.15
2022-10-31T21:18:53.740Z,5.15
2022-10-31T21:21:29.102Z,4.88
2022-10-31T21:24:02.893Z,5.45
2022-10-31T21:26:33.599Z,4.93
2022-10-31T21:29:01.156Z,4.45
2022-10-31T21:31:28.440Z,4.55
2022-10-31T21:33:55.465Z,4.65
2022-10-31T21:36:22.523Z,4.32
2022-10-31T21:38:53.183Z,5.05
2022-10-31T21:41:20.988Z,4.93
2022-10-31T21:43:49.267Z,4.80
2022-10-31T21:46:18.956Z,5.00
2022-10-31T21:48:46.463Z,4.72
2022-10-31T21:51:16.019Z,5.07
2022-10-31T21:54:02.177Z,6.13
2022-10-31T21:56:29.284Z,6.78
2022-10-31T21:58:56.778Z,5.90
2022-10-31T22:01:25.597Z,5.30
2022-10-31T22:03:52.825Z,5.63
2022-10-31T22:06:19.686Z,6.32
2022-10-31T22:08:46.587Z,5.70
2022-10-31T22:11:16.032Z,5.80
2022-10-31T22:13:44.775Z,5.35
2022-10-31T22:16:16.457Z,5.72
2022-10-31T22:18:44.533Z,5.82
2022-10-31T22:21:16.623Z,6.50
2022-10-31T22:23:43.974Z,5.67
2022-10-31T22:26:16.168Z,6.50
2022-10-31T22:28:44.722Z,6.20
2022-10-31T22:31:13.320Z,6.97
2022-10-31T22:33:40.658Z,5.93
2022-10-31T22:36:11.707Z,6.65
2022-10-31T22:38:40.416Z,5.95
2022-10-31T22:41:10.903Z,6.85
2022-10-31T22:43:37.849Z,6.68
2022-10-31T22:46:06.437Z,6.65
2022-10-31T22:48:37.309Z,6.57
2022-10-31T22:51:09.079Z,5.03
2022-10-31T22:53:36.900Z,6.70
2022-10-31T22:56:05.278Z,5.30
2022-10-31T22:58:33.475Z,6.18
2022-10-31T23:01:01.147Z,5.22
2022-10-31T23:03:28.148Z,5.88
2022-10-31T23:06:01.459Z,5.20
2022-10-31T23:08:29.873Z,5.85
2022-10-31T23:10:56.988Z,4.65
2022-10-31T23:13:42.480Z,5.35
2022-10-31T23:16:10.391Z,4.97
2022-10-31T23:18:49.577Z,4.95
2022-10-31T23:21:37.408Z,5.25
2022-10-31T23:24:04.560Z,4.50
2022-10-31T23:26:51.016Z,4.20
2022-10-31T23:29:18.020Z,4.75
2022-10-31T23:31:44.959Z,4.10
2022-10-31T23:34:11.931Z,4.85
2022-10-31T23:36:38.762Z,5.20
2022-10-31T23:39:05.787Z,4.25
2022-10-31T23:41:32.680Z,5.35
2022-10-31T23:43:59.720Z,4.40
2022-10-31T23:46:26.573Z,5.30
2022-10-31T23:48:53.640Z,4.25
2022-10-31T23:51:20.557Z,4.25
2022-10-31T23:53:47.530Z,5.65
2022-10-31T23:56:14.809Z,5.15
2022-10-31T23:58:41.911Z,4.20
